Time;durP1;ratioP1;P1;durP2;ratioP2;P2;SDS_P1;SDS_P2;PMS_P1;PMS_P2;Temp;Humidity;BMP_temperature;BMP_pressure;BME280_temperature;BME280_humidity;BME280_pressure;Samples;Min_cycle;Max_cycle;Signal;HPM_P1;HPM_P2
2021/03/20 00:00:06;;;;;;;1.33;0.90;;;;;;;-5.61;90.84;101897.31;5055758;28;20514;-72
2021/03/20 00:02:33;;;;;;;2.33;1.13;;;;;;;-5.64;90.51;101902.22;5081134;28;20452;-72
2021/03/20 00:04:59;;;;;;;1.93;1.00;;;;;;;-5.69;90.79;101896.00;5086440;28;20447;-72
2021/03/20 00:07:25;;;;;;;1.10;1.00;;;;;;;-5.64;91.30;101909.84;5079884;28;20209;-72
2021/03/20 00:09:53;;;;;;;3.50;1.13;;;;;;;-5.65;93.04;101893.72;5081678;28;20458;-72
2021/03/20 00:12:20;;;;;;;0.93;0.83;;;;;;;-5.71;92.64;101899.31;5078570;28;20939;-72
2021/03/20 00:14:46;;;;;;;2.57;1.30;;;;;;;-5.77;92.25;101908.22;5079982;28;21223;-72
2021/03/20 00:17:13;;;;;;;2.13;1.20;;;;;;;-5.78;92.67;101896.31;5059834;28;20459;-72
2021/03/20 00:19:39;;;;;;;1.63;1.10;;;;;;;-5.81;92.70;101902.06;5077120;28;20509;-72
2021/03/20 00:22:05;;;;;;;1.37;1.03;;;;;;;-5.82;92.93;101901.97;5077990;28;20448;-72
2021/03/20 00:24:31;;;;;;;2.17;1.03;;;;;;;-5.79;93.65;101902.16;5080813;28;20444;-72
2021/03/20 00:26:57;;;;;;;1.33;1.13;;;;;;;-5.85;93.72;101914.50;5060847;28;20551;-72
2021/03/20 00:29:24;;;;;;;1.90;1.17;;;;;;;-5.91;93.50;101913.34;5078841;28;20463;-72
2021/03/20 00:31:50;;;;;;;1.83;1.20;;;;;;;-5.91;93.94;101912.44;5083412;28;20186;-72
2021/03/20 00:34:16;;;;;;;2.23;1.07;;;;;;;-5.89;94.96;101913.44;5080771;28;20464;-72
2021/03/20 00:36:42;;;;;;;1.20;1.03;;;;;;;-5.91;94.46;101913.34;5082646;28;20460;-72
2021/03/20 00:39:09;;;;;;;2.60;1.30;;;;;;;-5.86;96.50;101913.63;5081051;28;20475;-72
2021/03/20 00:41:36;;;;;;;2.83;1.43;;;;;;;-5.98;95.05;101917.97;5081514;28;20862;-72
2021/03/20 00:44:02;;;;;;;3.27;1.30;;;;;;;-6.02;95.11;101916.03;5079232;28;20483;-72
2021/03/20 00:46:29;;;;;;;1.57;1.20;;;;;;;-6.04;94.78;101921.03;5061549;28;20471;-72
2021/03/20 00:48:55;;;;;;;1.43;1.13;;;;;;;-6.05;95.02;101913.31;5075183;28;20456;-72
2021/03/20 00:51:21;;;;;;;1.77;1.20;;;;;;;-6.01;96.27;101913.59;5079230;28;20511;-72
2021/03/20 00:53:47;;;;;;;1.77;1.10;;;;;;;-6.01;96.85;101911.06;5082934;28;20471;-72
2021/03/20 00:56:13;;;;;;;2.30;1.67;;;;;;;-6.10;96.27;101918.97;5058942;28;20464;-72
2021/03/20 00:58:42;;;;;;;3.33;1.60;;;;;;;-6.14;96.59;101917.06;5064813;28;20467;-72
2021/03/20 01:01:10;;;;;;;3.77;1.20;;;;;;;-6.12;97.32;101919.66;5077927;28;20463;-72
2021/03/20 01:03:38;;;;;;;0.93;0.83;;;;;;;-6.05;98.68;101916.75;5079853;28;20483;-72
2021/03/20 01:06:05;;;;;;;1.03;0.97;;;;;;;-5.99;100.00;101921.31;5080576;28;20466;-72
2021/03/20 01:08:31;;;;;;;1.53;1.43;;;;;;;-5.99;100.00;101918.78;5080524;28;20460;-72
2021/03/20 01:10:58;;;;;;;1.40;1.10;;;;;;;-5.97;100.00;101927.38;5082824;28;20698;-72
2021/03/20 01:13:24;;;;;;;1.47;1.03;;;;;;;-5.98;100.00;101913.78;5079865;28;21112;-72
2021/03/20 01:15:50;;;;;;;1.13;1.03;;;;;;;-6.04;100.00;101917.63;5082403;28;20492;-72
2021/03/20 01:18:17;;;;;;;2.93;1.63;;;;;;;-6.03;100.00;101916.81;5079116;28;20986;-72
2021/03/20 01:20:44;;;;;;;1.13;0.87;;;;;;;-6.03;100.00;101915.16;5086867;28;20497;-72
2021/03/20 01:23:10;;;;;;;2.47;1.53;;;;;;;-5.98;100.00;101918.88;5086401;28;20452;-72
2021/03/20 01:25:36;;;;;;;1.87;1.30;;;;;;;-6.06;100.00;101925.13;5084948;28;21083;-72
2021/03/20 01:28:03;;;;;;;2.73;1.63;;;;;;;-5.90;100.00;101927.78;5084335;28;21072;-72
2021/03/20 01:30:33;;;;;;;4.73;2.67;;;;;;;-5.92;100.00;101924.28;5082517;28;20499;-72
2021/03/20 01:32:59;;;;;;;3.90;2.43;;;;;;;-6.03;100.00;101920.25;5083401;28;20487;-72
2021/03/20 01:35:25;;;;;;;6.67;2.33;;;;;;;-5.97;100.00;101915.53;5080136;28;20503;-72
2021/03/20 01:37:53;;;;;;;3.17;1.70;;;;;;;-6.03;100.00;101920.25;5084329;28;20862;-72
2021/03/20 01:40:21;;;;;;;2.33;1.43;;;;;;;-6.16;100.00;101918.59;5083710;28;20471;-72
2021/03/20 01:42:48;;;;;;;7.17;3.33;;;;;;;-6.11;100.00;101911.28;5085347;28;20478;-72
2021/03/20 01:45:19;;;;;;;4.73;2.93;;;;;;;-6.16;100.00;101913.50;5081425;28;20488;-72
2021/03/20 01:47:54;;;;;;;4.50;2.73;;;;;;;-5.87;100.00;101908.44;5085824;28;20959;-72
2021/03/20 01:50:27;;;;;;;7.80;3.40;;;;;;;-6.19;100.00;101913.34;5076715;28;21233;-72
2021/03/20 01:52:58;;;;;;;20.07;9.53;;;;;;;-6.08;100.00;101906.38;5084963;28;20444;-72
2021/03/20 01:55:27;;;;;;;14.33;6.73;;;;;;;-6.04;100.00;101905.78;5083424;28;20463;-72
2021/03/20 01:57:58;;;;;;;19.40;9.93;;;;;;;-6.09;100.00;101907.16;5086032;28;20820;-72
2021/03/20 02:00:31;;;;;;;15.20;9.67;;;;;;;-6.11;100.00;101903.66;5059201;28;20574;-72
2021/03/20 02:03:00;;;;;;;20.73;9.23;;;;;;;-6.06;100.00;101903.94;5078591;28;20448;-72
2021/03/20 02:05:28;;;;;;;7.97;4.40;;;;;;;-6.13;100.00;101900.16;5078990;28;20839;-72
2021/03/20 02:07:57;;;;;;;14.40;7.03;;;;;;;-6.23;100.00;101901.22;5078328;28;20439;-72
2021/03/20 02:10:24;;;;;;;15.47;8.87;;;;;;;-6.29;100.00;101906.78;5084009;28;20479;-72
2021/03/20 02:12:56;;;;;;;17.83;8.47;;;;;;;-6.14;100.00;101893.28;5084443;28;20564;-72
2021/03/20 02:15:28;;;;;;;6.07;3.97;;;;;;;-6.34;100.00;101881.91;5078849;28;20456;-72
2021/03/20 02:18:03;;;;;;;6.77;3.83;;;;;;;-6.43;100.00;101888.97;5084053;28;20544;-72
2021/03/20 02:21:00;;;;;;;5.63;3.10;;;;;;;-6.62;100.00;101889.44;5077022;28;20475;-72
2021/03/20 02:24:15;;;;;;;6.57;2.63;;;;;;;-6.54;100.00;101875.59;5068005;28;20498;-72
2021/03/20 02:27:18;;;;;;;5.30;2.63;;;;;;;-6.75;100.00;101891.19;5070947;28;20455;-72
2021/03/20 02:30:07;;;;;;;3.77;2.57;;;;;;;-6.71;100.00;101885.53;5063661;28;20467;-72
2021/03/20 02:32:53;;;;;;;3.17;1.80;;;;;;;-6.47;100.00;101893.84;5078448;28;20928;-72
2021/03/20 02:35:28;;;;;;;1.63;1.50;;;;;;;-6.70;100.00;101897.44;5080872;28;20538;-72
2021/03/20 02:38:07;;;;;;;2.23;1.87;;;;;;;-6.70;100.00;101901.63;5081712;28;21156;-72
2021/03/20 02:40:40;;;;;;;1.77;1.57;;;;;;;-6.82;100.00;101905.91;5082311;28;20574;-72
2021/03/20 02:43:13;;;;;;;1.63;1.50;;;;;;;-6.80;100.00;101906.91;5080785;28;20440;-72
2021/03/20 02:45:43;;;;;;;1.90;1.17;;;;;;;-6.58;100.00;101909.16;5081455;28;20922;-72
2021/03/20 02:48:28;;;;;;;3.50;1.30;;;;;;;-6.62;100.00;101910.63;5083885;28;21059;-72
2021/03/20 02:51:00;;;;;;;2.93;1.57;;;;;;;-6.41;100.00;101910.22;5077338;28;20484;-72
2021/03/20 02:53:31;;;;;;;4.90;1.70;;;;;;;-6.54;100.00;101911.13;5082186;28;20442;-72
2021/03/20 02:56:00;;;;;;;2.27;1.40;;;;;;;-6.42;100.00;101921.16;5074092;28;20444;-72
2021/03/20 02:58:31;;;;;;;3.33;1.87;;;;;;;-6.73;100.00;101925.16;5083023;28;20462;-72
2021/03/20 03:01:01;;;;;;;1.43;1.33;;;;;;;-6.57;100.00;101927.00;5076663;28;21039;-72
2021/03/20 03:03:32;;;;;;;1.47;1.13;;;;;;;-6.77;100.00;101933.34;5083229;28;20451;-72
2021/03/20 03:06:05;;;;;;;2.80;1.30;;;;;;;-6.77;100.00;101933.34;5079885;28;20463;-72
2021/03/20 03:08:35;;;;;;;1.57;1.30;;;;;;;-6.75;100.00;101929.25;5078775;28;21046;-72
2021/03/20 03:11:05;;;;;;;3.87;1.80;;;;;;;-6.69;100.00;101937.25;5084615;28;20472;-72
2021/03/20 03:13:35;;;;;;;2.57;1.73;;;;;;;-6.44;100.00;101931.19;5080618;28;20487;-72
2021/03/20 03:16:08;;;;;;;2.93;1.20;;;;;;;-6.78;100.00;101930.72;5079720;28;20445;-72
2021/03/20 03:18:39;;;;;;;3.60;1.57;;;;;;;-6.86;100.00;101931.09;5080551;28;20452;-72
2021/03/20 03:21:09;;;;;;;4.53;1.60;;;;;;;-6.86;100.00;101930.19;5083111;28;20459;-72
2021/03/20 03:23:37;;;;;;;4.23;1.60;;;;;;;-6.92;100.00;101934.88;5085113;28;20468;-72
2021/03/20 03:26:08;;;;;;;3.47;1.37;;;;;;;-6.92;100.00;101940.81;5063212;28;20464;-72
2021/03/20 03:28:35;;;;;;;3.07;1.80;;;;;;;-6.93;100.00;101943.25;5083453;28;20538;-72
2021/03/20 03:31:10;;;;;;;1.80;1.50;;;;;;;-6.89;100.00;101946.09;5080586;28;20475;-72
2021/03/20 03:33:42;;;;;;;2.70;1.30;;;;;;;-6.83;100.00;101942.22;5081330;28;20462;-72
2021/03/20 03:36:12;;;;;;;3.27;1.60;;;;;;;-6.89;100.00;101951.19;5080994;28;20505;-72
2021/03/20 03:38:44;;;;;;;3.93;1.50;;;;;;;-6.80;100.00;101944.97;5083819;28;20514;-72
2021/03/20 03:41:17;;;;;;;4.00;1.50;;;;;;;-6.80;100.00;101945.81;5065658;28;20455;-72
2021/03/20 03:43:44;;;;;;;2.67;1.67;;;;;;;-6.75;100.00;101947.00;5080519;28;20531;-72
2021/03/20 03:46:11;;;;;;;2.50;1.57;;;;;;;-6.86;100.00;101948.84;5078244;28;20471;-72
2021/03/20 03:48:39;;;;;;;3.17;2.00;;;;;;;-6.76;100.00;101951.97;5081065;28;20535;-72
2021/03/20 03:51:10;;;;;;;1.93;1.40;;;;;;;-6.82;100.00;101954.09;5067428;28;20556;-72
2021/03/20 03:53:36;;;;;;;2.37;1.67;;;;;;;-6.89;100.00;101956.25;5079425;28;21109;-72
2021/03/20 03:56:15;;;;;;;4.97;2.20;;;;;;;-6.89;100.00;101956.25;5084043;28;20767;-72
2021/03/20 03:58:53;;;;;;;4.37;1.87;;;;;;;-6.91;100.00;101959.44;5081055;28;20597;-72
2021/03/20 04:01:30;;;;;;;2.73;1.80;;;;;;;-6.84;100.00;101954.03;5083740;28;20455;-72
2021/03/20 04:04:01;;;;;;;2.47;1.40;;;;;;;-6.72;100.00;101962.44;5080126;28;20455;-72
2021/03/20 04:07:00;;;;;;;1.90;1.70;;;;;;;-6.81;100.00;101961.81;5084624;28;20971;-72
2021/03/20 04:09:41;;;;;;;2.60;1.80;;;;;;;-6.88;100.00;101964.72;5048281;28;20474;-72
2021/03/20 04:12:14;;;;;;;2.00;1.40;;;;;;;-6.82;100.00;101971.84;5080996;28;20475;-72
2021/03/20 04:14:47;;;;;;;2.90;1.70;;;;;;;-6.82;100.00;101975.28;5080054;28;20444;-72
2021/03/20 04:17:20;;;;;;;2.13;1.50;;;;;;;-6.79;100.00;101972.06;5083841;28;20443;-72
2021/03/20 04:19:58;;;;;;;3.60;2.07;;;;;;;-6.80;100.00;101972.84;5080301;28;20616;-72
2021/03/20 04:22:31;;;;;;;2.27;1.73;;;;;;;-6.80;100.00;101973.72;5077635;28;20593;-72
2021/03/20 04:25:06;;;;;;;3.70;1.83;;;;;;;-6.79;100.00;101969.53;5079954;28;20492;-72
2021/03/20 04:27:35;;;;;;;1.93;1.60;;;;;;;-6.67;100.00;101965.25;5079794;28;20456;-72
2021/03/20 04:30:10;;;;;;;4.73;1.97;;;;;;;-6.68;100.00;101969.47;5079962;28;20545;-72
2021/03/20 04:32:42;;;;;;;2.33;1.63;;;;;;;-6.67;100.00;101960.19;5079495;28;20989;-72
2021/03/20 04:35:14;;;;;;;3.40;1.70;;;;;;;-6.53;100.00;101966.16;5077888;28;20902;-72
2021/03/20 04:37:46;;;;;;;1.93;1.73;;;;;;;-6.57;100.00;101967.63;5080618;28;20466;-72
2021/03/20 04:40:30;;;;;;;4.40;2.57;;;;;;;-6.51;100.00;101973.09;5081681;28;20505;-72
2021/03/20 04:42:58;;;;;;;3.93;2.30;;;;;;;-6.41;100.00;101972.03;5080323;28;20895;-72
2021/03/20 04:45:31;;;;;;;3.63;2.43;;;;;;;-6.48;100.00;101970.75;5082737;28;20550;-72
2021/03/20 04:48:02;;;;;;;3.57;2.17;;;;;;;-6.31;100.00;101970.97;5078891;28;20451;-72
2021/03/20 04:50:29;;;;;;;3.13;1.97;;;;;;;-6.30;100.00;101965.09;5083071;28;20966;-72
2021/03/20 04:52:59;;;;;;;4.00;2.03;;;;;;;-6.39;100.00;101965.38;5077290;28;20540;-72
2021/03/20 04:55:25;;;;;;;3.13;1.80;;;;;;;-6.35;100.00;101951.22;5080886;28;20835;-72
2021/03/20 04:57:57;;;;;;;2.60;2.13;;;;;;;-6.38;100.00;101957.00;5083588;28;20462;-72
2021/03/20 05:00:30;;;;;;;2.80;1.93;;;;;;;-6.52;100.00;101953.56;5080642;28;20471;-72
2021/03/20 05:03:04;;;;;;;4.90;2.07;;;;;;;-6.59;100.00;101953.09;5079476;28;20860;-72
2021/03/20 05:05:35;;;;;;;3.20;1.90;;;;;;;-6.54;100.00;101952.59;5081895;28;21152;-72
2021/03/20 05:08:06;;;;;;;3.30;1.83;;;;;;;-6.65;100.00;101953.53;5075851;28;20455;-72
2021/03/20 05:10:39;;;;;;;2.80;1.97;;;;;;;-6.62;100.00;101963.03;5080156;28;20471;-72
2021/03/20 05:13:11;;;;;;;2.53;1.87;;;;;;;-6.57;100.00;101965.06;5082100;28;20502;-72
2021/03/20 05:15:37;;;;;;;3.83;1.63;;;;;;;-6.66;100.00;101967.91;5077722;28;20473;-72
2021/03/20 05:18:04;;;;;;;4.43;2.30;;;;;;;-6.71;100.00;101970.91;5083235;28;21083;-72
2021/03/20 05:20:31;;;;;;;1.90;1.57;;;;;;;-6.62;100.00;101979.13;5079976;28;20477;-72
2021/03/20 05:22:57;;;;;;;2.70;1.77;;;;;;;-6.50;100.00;101976.50;5083868;28;20452;-72
2021/03/20 05:25:25;;;;;;;2.33;1.50;;;;;;;-6.55;100.00;101978.75;5080336;28;20452;-72
2021/03/20 05:27:53;;;;;;;3.27;2.00;;;;;;;-6.71;100.00;101981.94;5083124;28;20464;-72
2021/03/20 05:30:22;;;;;;;4.47;1.80;;;;;;;-6.66;100.00;101993.28;5082539;28;21022;-72
2021/03/20 05:32:48;;;;;;;3.57;1.50;;;;;;;-6.67;100.00;101993.16;5080814;28;20546;-72
2021/03/20 05:35:21;;;;;;;3.53;1.60;;;;;;;-6.53;100.00;101992.41;5079641;28;21037;-72
2021/03/20 05:37:48;;;;;;;2.73;1.80;;;;;;;-6.60;100.00;102002.94;5079518;28;20450;-72
2021/03/20 05:40:21;;;;;;;3.87;2.03;;;;;;;-6.40;100.00;101994.09;5084184;28;20554;-72
2021/03/20 05:43:18;;;;;;;4.17;2.40;;;;;;;-6.51;100.00;101997.56;5080042;28;20802;-72
2021/03/20 05:45:52;;;;;;;2.50;1.60;;;;;;;-6.33;100.00;102001.31;5082301;28;20972;-72
2021/03/20 05:48:23;;;;;;;4.47;1.93;;;;;;;-6.24;100.00;102006.13;5077351;28;20482;-72
2021/03/20 05:51:07;;;;;;;2.30;1.80;;;;;;;-6.21;100.00;102007.94;5080966;28;20839;-72
2021/03/20 05:53:54;;;;;;;6.33;2.20;;;;;;;-6.00;100.00;102011.84;5077829;28;20455;-72
2021/03/20 05:56:25;;;;;;;3.00;2.30;;;;;;;-6.05;100.00;102005.63;5060940;28;20460;-72
2021/03/20 05:59:04;;;;;;;6.07;2.63;;;;;;;-6.03;100.00;102013.31;5079697;28;20559;-72
2021/03/20 06:01:43;;;;;;;5.77;2.37;;;;;;;-5.95;100.00;101995.22;5080864;28;20497;-72
2021/03/20 06:04:24;;;;;;;4.03;1.93;;;;;;;-5.90;100.00;101998.03;5077009;28;20463;-72
2021/03/20 06:07:08;;;;;;;2.83;1.83;;;;;;;-5.82;100.00;102001.97;5083633;28;20558;-72
2021/03/20 06:09:47;;;;;;;2.63;1.80;;;;;;;-5.76;100.00;101994.69;5080169;28;21371;-72
2021/03/20 06:12:26;;;;;;;2.77;1.60;;;;;;;-5.68;100.00;101997.72;5084243;28;20890;-72
2021/03/20 06:15:08;;;;;;;2.27;1.53;;;;;;;-5.57;100.00;101995.84;5083601;28;20947;-72
2021/03/20 06:17:54;;;;;;;5.50;1.97;;;;;;;-5.52;100.00;101997.88;5084429;28;21018;-72
2021/03/20 06:20:44;;;;;;;1.73;1.47;;;;;;;-5.46;100.00;101999.91;5081713;28;20561;-72
2021/03/20 06:23:42;;;;;;;4.77;1.97;;;;;;;-5.41;100.00;102000.19;5084192;28;20443;-72
2021/03/20 06:26:17;;;;;;;2.83;1.87;;;;;;;-5.29;100.00;102005.13;5082674;28;20456;-72
2021/03/20 06:28:48;;;;;;;4.87;3.03;;;;;;;-5.30;100.00;102009.34;5084815;28;21201;-72
2021/03/20 06:31:20;;;;;;;3.37;2.30;;;;;;;-5.25;100.00;102010.50;5080185;28;20599;-72
2021/03/20 06:33:51;;;;;;;4.23;2.33;;;;;;;-5.23;100.00;102008.06;5082794;28;20448;-72
2021/03/20 06:36:23;;;;;;;6.10;2.50;;;;;;;-5.07;100.00;102004.75;5082612;28;20878;-72
2021/03/20 06:39:00;;;;;;;5.73;3.17;;;;;;;-5.01;100.00;102006.00;5082589;28;21240;-72
2021/03/20 06:41:34;;;;;;;3.47;2.40;;;;;;;-4.92;100.00;102008.22;5083058;28;20475;-72
2021/03/20 06:44:19;;;;;;;5.03;2.97;;;;;;;-4.98;100.00;102011.28;5081214;28;20447;-72
2021/03/20 06:46:45;;;;;;;3.57;2.13;;;;;;;-4.89;100.00;102010.94;5081424;28;20487;-72
2021/03/20 06:49:22;;;;;;;3.67;2.47;;;;;;;-4.72;100.00;102009.38;5080922;28;20836;-72
2021/03/20 06:51:49;;;;;;;3.97;2.20;;;;;;;-4.67;100.00;102007.09;5082003;28;20476;-73
2021/03/20 06:54:17;;;;;;;4.77;3.03;;;;;;;-4.62;100.00;102004.03;5080451;28;20498;-72
2021/03/20 06:56:46;;;;;;;2.37;1.77;;;;;;;-4.54;100.00;102008.69;5063820;28;21000;-72
2021/03/20 06:59:12;;;;;;;5.13;2.47;;;;;;;-4.37;100.00;102011.41;5080032;28;20493;-72
2021/03/20 07:01:43;;;;;;;4.13;2.47;;;;;;;-4.30;100.00;102015.16;5076951;28;20836;-72
2021/03/20 07:04:42;;;;;;;2.73;1.93;;;;;;;-4.17;100.00;102014.19;5081928;28;20450;-72
2021/03/20 07:07:26;;;;;;;3.43;2.20;;;;;;;-3.98;100.00;102015.22;5082998;28;20486;-72
2021/03/20 07:09:53;;;;;;;3.50;2.00;;;;;;;-3.85;100.00;102008.34;5079962;28;20671;-72
2021/03/20 07:12:23;;;;;;;5.20;2.50;;;;;;;-3.74;100.00;102011.47;5079402;28;20501;-72
2021/03/20 07:14:53;;;;;;;5.20;2.47;;;;;;;-3.62;100.00;102004.47;5073847;28;20468;-72
2021/03/20 07:17:37;;;;;;;6.80;2.43;;;;;;;-3.43;100.00;102008.91;5078846;28;20442;-72
2021/03/20 07:20:08;;;;;;;4.20;2.03;;;;;;;-3.21;100.00;102004.91;5074698;28;20493;-73
2021/03/20 07:22:38;;;;;;;2.93;2.00;;;;;;;-3.15;100.00;102009.44;5078715;28;20464;-73
2021/03/20 07:25:23;;;;;;;3.77;2.13;;;;;;;-3.04;100.00;102005.78;5081840;28;20457;-73
2021/03/20 07:27:54;;;;;;;5.43;2.50;;;;;;;-2.82;100.00;102007.75;5062614;28;20457;-73
2021/03/20 07:30:33;;;;;;;4.23;2.60;;;;;;;-2.81;100.00;102000.97;5085216;28;20560;-73
2021/03/20 07:32:59;;;;;;;7.03;3.07;;;;;;;-2.68;100.00;102001.66;5061521;28;20537;-73
2021/03/20 07:35:33;;;;;;;5.03;2.60;;;;;;;-2.64;100.00;102014.59;5082830;28;21381;-73
2021/03/20 07:38:15;;;;;;;4.07;2.50;;;;;;;-2.59;99.56;102014.00;5079970;28;20536;-73
2021/03/20 07:40:41;;;;;;;7.57;2.67;;;;;;;-2.37;100.00;102020.19;5060687;28;20589;-73
2021/03/20 07:43:14;;;;;;;5.17;2.47;;;;;;;-2.23;100.00;102015.72;5062001;28;20197;-73
2021/03/20 07:45:40;;;;;;;6.53;2.60;;;;;;;-2.34;91.73;102034.00;5081742;28;20370;-73
2021/03/20 07:48:18;;;;;;;5.87;3.00;;;;;;;-2.23;92.93;102023.38;5080307;28;20194;-73
2021/03/20 07:50:46;;;;;;;5.10;2.83;;;;;;;-2.14;91.70;102034.09;5080921;28;20306;-73
2021/03/20 07:53:15;;;;;;;5.93;2.67;;;;;;;-2.10;88.55;102038.53;5080697;28;20259;-73
2021/03/20 07:56:05;;;;;;;6.77;2.83;;;;;;;-2.04;86.56;102048.16;5071609;28;20202;-73
2021/03/20 07:58:39;;;;;;;7.97;2.73;;;;;;;-2.01;85.59;102048.31;5081722;28;20209;-73
2021/03/20 08:01:08;;;;;;;6.30;3.27;;;;;;;-2.02;83.61;102056.78;5075286;28;20268;-73
2021/03/20 08:03:47;;;;;;;6.57;2.73;;;;;;;-1.87;84.42;102067.75;5082250;28;20294;-73
2021/03/20 08:06:15;;;;;;;3.93;2.10;;;;;;;-1.85;81.77;102072.94;5079094;28;21099;-73
2021/03/20 08:08:42;;;;;;;5.20;2.60;;;;;;;-1.80;82.39;102076.59;5081855;28;20255;-73
2021/03/20 08:11:30;;;;;;;5.60;2.07;;;;;;;-1.70;83.69;102076.22;5076220;28;20553;-73
2021/03/20 08:14:02;;;;;;;7.00;2.30;;;;;;;-1.74;80.18;102082.88;5074816;28;20662;-73
2021/03/20 08:16:28;;;;;;;3.47;2.10;;;;;;;-1.73;79.81;102089.72;5076051;28;20697;-73
2021/03/20 08:18:56;;;;;;;3.53;1.93;;;;;;;-1.64;80.51;102093.53;5080724;28;20277;-73
2021/03/20 08:21:50;;;;;;;3.77;1.80;;;;;;;-1.63;79.91;102093.63;5078682;28;20775;-73
2021/03/20 08:24:41;;;;;;;4.47;2.00;;;;;;;-1.55;79.63;102093.97;5081959;28;20629;-73
2021/03/20 08:27:21;;;;;;;2.67;1.83;;;;;;;-1.43;81.13;102086.00;5076817;28;20697;-73
2021/03/20 08:30:17;;;;;;;2.13;1.30;;;;;;;-1.36;79.29;102093.13;5081048;28;20217;-73
2021/03/20 08:33:02;;;;;;;2.70;1.53;;;;;;;-1.28;79.58;102086.69;5077306;28;20630;-73
2021/03/20 08:35:34;;;;;;;2.97;1.93;;;;;;;-1.20;78.12;102087.91;5081188;28;20201;-73
2021/03/20 08:38:22;;;;;;;4.33;1.70;;;;;;;-1.09;79.00;102077.28;5075819;28;20213;-73
2021/03/20 08:40:58;;;;;;;3.93;1.80;;;;;;;-0.91;79.56;102080.66;5080721;28;20217;-73
2021/03/20 08:43:43;;;;;;;3.23;1.60;;;;;;;-0.90;77.99;102084.09;5078266;28;20207;-73
2021/03/20 08:46:24;;;;;;;2.30;1.53;;;;;;;-0.84;77.94;102084.38;5072790;28;20206;-73
2021/03/20 08:49:01;;;;;;;5.03;1.67;;;;;;;-0.79;79.42;102081.22;5059724;28;20700;-73
2021/03/20 08:51:38;;;;;;;5.40;2.17;;;;;;;-0.90;76.24;102092.66;5080229;28;20218;-73
2021/03/20 08:54:20;;;;;;;15.30;7.93;;;;;;;-1.06;74.76;102096.22;5076292;28;20281;-73
2021/03/20 08:56:59;;;;;;;6.40;3.73;;;;;;;-1.06;75.56;102093.66;5078038;28;20263;-73
2021/03/20 08:59:30;;;;;;;16.10;9.93;;;;;;;-1.01;75.21;102097.28;5080123;28;20224;-73
2021/03/20 09:01:59;;;;;;;3.40;1.53;;;;;;;-0.99;73.92;102097.38;5075287;28;20304;-73
2021/03/20 09:04:29;;;;;;;2.70;1.90;;;;;;;-0.89;75.95;102091.00;5060342;28;20620;-73
2021/03/20 09:06:59;;;;;;;2.50;1.50;;;;;;;-0.85;72.78;102100.53;5076756;28;20240;-73
2021/03/20 09:09:31;;;;;;;2.97;1.60;;;;;;;-0.94;72.62;102105.28;5074661;28;20225;-73
2021/03/20 09:12:02;;;;;;;2.70;1.23;;;;;;;-0.91;71.48;102106.28;5078010;28;20217;-73
2021/03/20 09:14:33;;;;;;;3.23;1.17;;;;;;;-0.73;72.51;102108.78;5081460;28;20202;-73
2021/03/20 09:17:04;;;;;;;3.83;2.23;;;;;;;-0.70;67.69;102119.16;5075879;28;20239;-73
2021/03/20 09:19:34;;;;;;;2.53;1.53;;;;;;;-0.70;67.64;102128.50;5080043;28;20681;-73
2021/03/20 09:22:05;;;;;;;3.63;1.97;;;;;;;-0.63;67.61;102126.31;5077671;28;20618;-73
2021/03/20 09:24:31;;;;;;;1.80;1.27;;;;;;;-0.52;67.40;102118.22;5078293;28;20196;-73
2021/03/20 09:27:00;;;;;;;1.57;0.90;;;;;;;-0.46;66.13;102129.59;5078205;28;20226;-73
2021/03/20 09:29:28;;;;;;;3.00;1.10;;;;;;;-0.37;65.78;102129.09;5076896;28;20216;-73
2021/03/20 09:32:14;;;;;;;1.67;0.87;;;;;;;-0.41;65.09;102129.78;5078918;28;20249;-73
2021/03/20 09:34:53;;;;;;;1.90;1.50;;;;;;;-0.22;67.94;102121.19;5076143;28;20694;-73
2021/03/20 09:37:48;;;;;;;2.60;1.40;;;;;;;-0.08;66.85;102124.34;5079349;28;20638;-73
2021/03/20 09:40:40;;;;;;;1.27;1.17;;;;;;;-0.34;64.70;102142.03;5079893;28;20213;-73
2021/03/20 09:43:44;;;;;;;2.30;1.20;;;;;;;-0.33;64.33;102133.56;5071190;28;20230;-73
2021/03/20 09:46:34;;;;;;;1.20;1.10;;;;;;;-0.17;64.47;102134.22;5083646;28;20207;-73
2021/03/20 09:49:03;;;;;;;2.43;1.23;;;;;;;0.06;66.84;102130.03;5081708;28;20816;-73
2021/03/20 09:51:58;;;;;;;2.57;1.07;;;;;;;0.09;63.60;102142.97;5081771;28;20230;-73
2021/03/20 09:54:43;;;;;;;2.47;1.07;;;;;;;0.11;65.23;102131.97;5077998;28;20244;-73
2021/03/20 09:57:55;;;;;;;1.90;0.90;;;;;;;0.17;65.86;102142.47;5082106;28;20197;-73
2021/03/20 10:01:01;;;;;;;1.67;0.90;;;;;;;0.09;63.37;102133.59;5034811;28;20229;-73
2021/03/20 10:03:46;;;;;;;3.73;1.23;;;;;;;0.06;63.87;102132.59;5083705;28;20197;-73
2021/03/20 10:06:23;;;;;;;3.23;1.10;;;;;;;0.12;64.33;102130.28;5080922;28;20894;-73
2021/03/20 10:09:17;;;;;;;9.13;3.37;;;;;;;0.13;64.82;102135.47;5083194;28;20620;-73
2021/03/20 10:12:05;;;;;;;3.23;1.40;;;;;;;0.20;66.66;102125.47;5079441;28;20227;-73
2021/03/20 10:14:33;;;;;;;8.10;3.30;;;;;;;0.18;65.37;102128.84;5084458;28;20193;-73
2021/03/20 10:17:13;;;;;;;3.70;1.07;;;;;;;0.16;65.02;102134.72;5077825;28;20580;-73
2021/03/20 10:19:42;;;;;;;2.87;1.40;;;;;;;0.27;67.65;102124.91;5082486;28;20236;-73
2021/03/20 10:22:22;;;;;;;1.40;0.97;;;;;;;0.29;66.02;102131.84;5076429;28;20221;-73
2021/03/20 10:24:50;;;;;;;0.80;0.80;;;;;;;0.31;65.93;102125.06;5082402;28;20289;-73
2021/03/20 10:27:21;;;;;;;0.73;0.70;;;;;;;0.20;65.40;102125.47;5081721;28;20762;-74
2021/03/20 10:29:47;;;;;;;2.37;0.83;;;;;;;0.36;68.24;102115.00;5083578;28;20245;-73
2021/03/20 10:32:17;;;;;;;1.30;1.00;;;;;;;0.48;67.80;102115.47;5082473;28;20784;-73
2021/03/20 10:34:53;;;;;;;3.30;1.70;;;;;;;0.70;70.14;102109.50;5080065;28;20182;-73
2021/03/20 10:37:21;;;;;;;2.43;1.50;;;;;;;0.87;67.28;102104.09;5079778;28;20209;-73
2021/03/20 10:39:49;;;;;;;9.50;6.23;;;;;;;0.97;67.91;102100.16;5079892;28;20253;-73
2021/03/20 10:42:23;;;;;;;14.83;8.30;;;;;;;0.86;69.17;102100.66;5080478;28;20327;-73
2021/03/20 10:44:54;;;;;;;1.43;1.03;;;;;;;0.85;67.29;102098.03;5077674;28;20767;-73
2021/03/20 10:47:24;;;;;;;2.30;1.23;;;;;;;0.88;68.77;102095.56;5082818;28;20803;-73
2021/03/20 10:49:55;;;;;;;2.70;1.60;;;;;;;0.97;68.02;102102.72;5079901;28;20226;-73
2021/03/20 10:52:29;;;;;;;9.33;4.10;;;;;;;1.07;67.77;102098.03;5078044;28;20209;-73
2021/03/20 10:55:00;;;;;;;25.07;10.53;;;;;;;1.10;67.93;102092.09;5080811;28;20233;-73
2021/03/20 10:57:29;;;;;;;15.83;6.47;;;;;;;1.23;67.29;102095.97;5080676;28;20210;-73
2021/03/20 10:59:55;;;;;;;4.53;2.07;;;;;;;1.30;66.59;102098.84;5079724;28;20226;-73
2021/03/20 11:02:31;;;;;;;15.50;5.90;;;;;;;1.36;66.65;102089.59;5070793;28;20285;-74
2021/03/20 11:05:12;;;;;;;4.27;1.27;;;;;;;1.23;64.96;102098.53;5080637;28;20213;-73
2021/03/20 11:07:47;;;;;;;9.17;3.97;;;;;;;1.23;66.93;102086.59;5077086;28;20214;-74
2021/03/20 11:10:16;;;;;;;12.43;4.63;;;;;;;1.15;68.88;102077.72;5080394;28;20227;-74
2021/03/20 11:12:42;;;;;;;20.03;6.87;;;;;;;1.08;69.51;102081.75;5075837;28;20268;-73
2021/03/20 11:15:23;;;;;;;5.67;2.73;;;;;;;1.04;68.44;102086.72;5078824;28;20209;-73
2021/03/20 11:17:53;;;;;;;3.53;1.57;;;;;;;1.07;65.89;102090.31;5078298;28;20643;-74
2021/03/20 11:20:23;;;;;;;21.37;7.60;;;;;;;1.14;68.31;102075.97;5080812;28;20221;-73
2021/03/20 11:22:50;;;;;;;14.17;5.77;;;;;;;1.12;66.20;102078.47;5075712;28;20210;-73
2021/03/20 11:25:26;;;;;;;14.17;5.20;;;;;;;1.13;66.36;102077.66;5080017;28;20254;-73
2021/03/20 11:27:59;;;;;;;8.43;3.73;;;;;;;1.28;67.68;102059.34;5077664;28;20210;-73
2021/03/20 11:30:30;;;;;;;14.13;5.73;;;;;;;1.33;66.33;102062.06;5075426;28;20649;-73
2021/03/20 11:33:00;;;;;;;6.50;2.20;;;;;;;1.41;65.35;102064.94;5079268;28;20202;-74
2021/03/20 11:35:28;;;;;;;9.80;7.13;;;;;;;1.50;65.70;102057.53;5077674;28;20190;-74
2021/03/20 11:38:00;;;;;;;4.00;2.10;;;;;;;1.77;68.98;102048.97;5075425;28;20584;-73
2021/03/20 11:40:34;;;;;;;3.83;1.87;;;;;;;1.80;66.25;102049.94;5073058;28;20302;-74
2021/03/20 11:43:04;;;;;;;2.43;1.63;;;;;;;1.96;66.51;102035.88;5078697;28;20212;-73
2021/03/20 11:45:33;;;;;;;2.30;1.53;;;;;;;2.08;65.74;102025.13;5074179;28;20201;-73
2021/03/20 11:48:06;;;;;;;4.50;1.83;;;;;;;1.99;65.67;102027.41;5079342;28;20276;-73
2021/03/20 11:50:35;;;;;;;3.50;1.77;;;;;;;1.96;65.47;102010.16;5073951;28;20226;-73